sensor_id;sensor_type;location;lat;lon;timestamp;temperature;humidity
4376;DHT22;2202;50.866;12.750;2023-06-19T00:01:58;17.50;65.40
4376;DHT22;2202;50.866;12.750;2023-06-19T00:04:24;17.60;65.00
4376;DHT22;2202;50.866;12.750;2023-06-19T00:06:52;17.60;65.60
4376;DHT22;2202;50.866;12.750;2023-06-19T00:09:20;17.60;65.40
4376;DHT22;2202;50.866;12.750;2023-06-19T00:11:47;17.70;65.40
4376;DHT22;2202;50.866;12.750;2023-06-19T00:14:14;17.80;65.20
4376;DHT22;2202;50.866;12.750;2023-06-19T00:16:41;17.80;65.20
4376;DHT22;2202;50.866;12.750;2023-06-19T00:19:09;17.80;64.60
4376;DHT22;2202;50.866;12.750;2023-06-19T00:21:37;17.90;64.20
4376;DHT22;2202;50.866;12.750;2023-06-19T00:24:05;18.00;64.00
4376;DHT22;2202;50.866;12.750;2023-06-19T00:26:33;18.00;64.00
4376;DHT22;2202;50.866;12.750;2023-06-19T00:29:00;18.10;63.80
4376;DHT22;2202;50.866;12.750;2023-06-19T00:31:27;18.10;63.60
4376;DHT22;2202;50.866;12.750;2023-06-19T00:33:54;18.20;63.80
4376;DHT22;2202;50.866;12.750;2023-06-19T00:36:21;18.20;63.20
4376;DHT22;2202;50.866;12.750;2023-06-19T00:38:51;18.20;63.20
4376;DHT22;2202;50.866;12.750;2023-06-19T00:41:18;18.20;63.40
4376;DHT22;2202;50.866;12.750;2023-06-19T00:43:46;18.30;63.20
4376;DHT22;2202;50.866;12.750;2023-06-19T00:46:13;18.30;63.20
4376;DHT22;2202;50.866;12.750;2023-06-19T00:48:40;18.30;63.40
4376;DHT22;2202;50.866;12.750;2023-06-19T00:51:07;18.30;63.40
4376;DHT22;2202;50.866;12.750;2023-06-19T00:53:34;18.30;63.20
4376;DHT22;2202;50.866;12.750;2023-06-19T00:56:02;18.30;63.00
4376;DHT22;2202;50.866;12.750;2023-06-19T00:58:29;18.30;63.60
4376;DHT22;2202;50.866;12.750;2023-06-19T01:00:58;18.20;63.60
4376;DHT22;2202;50.866;12.750;2023-06-19T01:03:25;18.20;63.40
4376;DHT22;2202;50.866;12.750;2023-06-19T01:05:53;18.20;63.60
4376;DHT22;2202;50.866;12.750;2023-06-19T01:08:43;18.20;63.80
4376;DHT22;2202;50.866;12.750;2023-06-19T01:11:11;18.10;63.80
4376;DHT22;2202;50.866;12.750;2023-06-19T01:13:44;18.10;63.80
4376;DHT22;2202;50.866;12.750;2023-06-19T01:16:13;18.10;64.00
4376;DHT22;2202;50.866;12.750;2023-06-19T01:18:42;18.10;64.40
4376;DHT22;2202;50.866;12.750;2023-06-19T01:21:10;18.10;64.40
4376;DHT22;2202;50.866;12.750;2023-06-19T01:23:39;18.10;64.40
4376;DHT22;2202;50.866;12.750;2023-06-19T01:26:06;18.10;64.80
4376;DHT22;2202;50.866;12.750;2023-06-19T01:28:34;18.00;65.20
4376;DHT22;2202;50.866;12.750;2023-06-19T01:31:05;18.00;65.20
4376;DHT22;2202;50.866;12.750;2023-06-19T01:33:33;18.00;65.20
4376;DHT22;2202;50.866;12.750;2023-06-19T01:36:02;18.00;65.60
4376;DHT22;2202;50.866;12.750;2023-06-19T01:38:31;18.00;65.60
4376;DHT22;2202;50.866;12.750;2023-06-19T01:41:01;18.00;65.40
4376;DHT22;2202;50.866;12.750;2023-06-19T01:43:30;18.00;65.00
4376;DHT22;2202;50.866;12.750;2023-06-19T01:45:58;18.00;65.20
4376;DHT22;2202;50.866;12.750;2023-06-19T01:48:26;18.00;64.80
4376;DHT22;2202;50.866;12.750;2023-06-19T01:50:53;18.00;64.80
4376;DHT22;2202;50.866;12.750;2023-06-19T01:53:20;18.10;64.40
4376;DHT22;2202;50.866;12.750;2023-06-19T01:55:47;18.10;64.40
4376;DHT22;2202;50.866;12.750;2023-06-19T01:58:16;18.10;63.80
4376;DHT22;2202;50.866;12.750;2023-06-19T02:00:42;18.10;63.40
4376;DHT22;2202;50.866;12.750;2023-06-19T02:03:09;18.20;63.20
4376;DHT22;2202;50.866;12.750;2023-06-19T02:05:36;18.30;63.00
4376;DHT22;2202;50.866;12.750;2023-06-19T02:08:05;18.30;62.40
4376;DHT22;2202;50.866;12.750;2023-06-19T02:10:32;18.30;62.40
4376;DHT22;2202;50.866;12.750;2023-06-19T02:12:59;18.40;62.20
4376;DHT22;2202;50.866;12.750;2023-06-19T02:15:27;18.40;62.20
4376;DHT22;2202;50.866;12.750;2023-06-19T02:17:55;18.40;62.00
4376;DHT22;2202;50.866;12.750;2023-06-19T02:20:22;18.40;62.00
4376;DHT22;2202;50.866;12.750;2023-06-19T02:22:50;18.40;62.20
4376;DHT22;2202;50.866;12.750;2023-06-19T02:25:17;18.40;61.60
4376;DHT22;2202;50.866;12.750;2023-06-19T02:27:45;18.50;61.40
4376;DHT22;2202;50.866;12.750;2023-06-19T02:30:12;18.50;61.80
4376;DHT22;2202;50.866;12.750;2023-06-19T02:32:40;18.50;61.40
4376;DHT22;2202;50.866;12.750;2023-06-19T02:35:11;18.50;61.20
4376;DHT22;2202;50.866;12.750;2023-06-19T02:37:39;18.50;61.40
4376;DHT22;2202;50.866;12.750;2023-06-19T02:40:07;18.50;60.80
4376;DHT22;2202;50.866;12.750;2023-06-19T02:42:34;18.50;60.80
4376;DHT22;2202;50.866;12.750;2023-06-19T02:45:01;18.50;60.60
4376;DHT22;2202;50.866;12.750;2023-06-19T02:47:29;18.50;60.10
4376;DHT22;2202;50.866;12.750;2023-06-19T02:49:58;18.50;60.10
4376;DHT22;2202;50.866;12.750;2023-06-19T02:52:26;18.60;59.90
4376;DHT22;2202;50.866;12.750;2023-06-19T02:54:53;18.60;60.20
4376;DHT22;2202;50.866;12.750;2023-06-19T02:57:20;18.50;60.20
4376;DHT22;2202;50.866;12.750;2023-06-19T02:59:47;18.50;59.90
4376;DHT22;2202;50.866;12.750;2023-06-19T03:02:14;18.60;59.80
4376;DHT22;2202;50.866;12.750;2023-06-19T03:04:40;18.60;59.60
4376;DHT22;2202;50.866;12.750;2023-06-19T03:07:09;18.60;59.60
4376;DHT22;2202;50.866;12.750;2023-06-19T03:09:36;18.60;59.90
4376;DHT22;2202;50.866;12.750;2023-06-19T03:12:03;18.60;60.20
4376;DHT22;2202;50.866;12.750;2023-06-19T03:14:30;18.60;60.80
4376;DHT22;2202;50.866;12.750;2023-06-19T03:16:57;18.60;60.60
4376;DHT22;2202;50.866;12.750;2023-06-19T03:19:24;18.50;60.20
4376;DHT22;2202;50.866;12.750;2023-06-19T03:21:51;18.50;60.80
4376;DHT22;2202;50.866;12.750;2023-06-19T03:24:19;18.50;60.80
4376;DHT22;2202;50.866;12.750;2023-06-19T03:26:46;18.50;60.40
4376;DHT22;2202;50.866;12.750;2023-06-19T03:29:12;18.60;60.60
4376;DHT22;2202;50.866;12.750;2023-06-19T03:31:39;18.60;60.60
4376;DHT22;2202;50.866;12.750;2023-06-19T03:34:06;18.60;59.90
4376;DHT22;2202;50.866;12.750;2023-06-19T03:36:33;18.70;60.10
4376;DHT22;2202;50.866;12.750;2023-06-19T03:39:00;18.70;59.80
4376;DHT22;2202;50.866;12.750;2023-06-19T03:41:28;18.80;59.00
4376;DHT22;2202;50.866;12.750;2023-06-19T03:43:55;18.80;58.90
4376;DHT22;2202;50.866;12.750;2023-06-19T03:46:22;18.90;58.50
4376;DHT22;2202;50.866;12.750;2023-06-19T03:48:48;19.00;58.20
4376;DHT22;2202;50.866;12.750;2023-06-19T03:51:15;19.10;57.40
4376;DHT22;2202;50.866;12.750;2023-06-19T03:53:42;19.10;57.30
4376;DHT22;2202;50.866;12.750;2023-06-19T03:56:09;19.20;57.30
4376;DHT22;2202;50.866;12.750;2023-06-19T03:58:37;19.30;56.60
4376;DHT22;2202;50.866;12.750;2023-06-19T04:01:04;19.40;56.20
4376;DHT22;2202;50.866;12.750;2023-06-19T04:03:31;19.40;56.20
4376;DHT22;2202;50.866;12.750;2023-06-19T04:05:58;19.50;56.20
4376;DHT22;2202;50.866;12.750;2023-06-19T04:08:25;19.50;56.00
4376;DHT22;2202;50.866;12.750;2023-06-19T04:10:52;19.50;56.20
4376;DHT22;2202;50.866;12.750;2023-06-19T04:13:19;19.60;56.20
4376;DHT22;2202;50.866;12.750;2023-06-19T04:15:47;19.60;56.20
4376;DHT22;2202;50.866;12.750;2023-06-19T04:18:14;19.70;56.40
4376;DHT22;2202;50.866;12.750;2023-06-19T04:20:41;19.70;55.90
4376;DHT22;2202;50.866;12.750;2023-06-19T04:23:08;19.70;56.70
4376;DHT22;2202;50.866;12.750;2023-06-19T04:25:35;19.70;56.70
4376;DHT22;2202;50.866;12.750;2023-06-19T04:28:02;19.70;56.20
4376;DHT22;2202;50.866;12.750;2023-06-19T04:30:29;19.70;56.20
4376;DHT22;2202;50.866;12.750;2023-06-19T04:32:58;19.80;56.20
4376;DHT22;2202;50.866;12.750;2023-06-19T04:35:25;19.80;54.80
4376;DHT22;2202;50.866;12.750;2023-06-19T04:37:53;19.80;55.30
4376;DHT22;2202;50.866;12.750;2023-06-19T04:40:20;19.80;55.70
4376;DHT22;2202;50.866;12.750;2023-06-19T04:42:47;19.90;55.90
4376;DHT22;2202;50.866;12.750;2023-06-19T04:45:14;19.90;55.30
4376;DHT22;2202;50.866;12.750;2023-06-19T04:47:40;20.00;54.60
4376;DHT22;2202;50.866;12.750;2023-06-19T04:50:11;20.00;55.90
4376;DHT22;2202;50.866;12.750;2023-06-19T04:52:38;20.10;55.00
4376;DHT22;2202;50.866;12.750;2023-06-19T04:55:07;20.10;54.80
4376;DHT22;2202;50.866;12.750;2023-06-19T04:57:35;20.20;55.50
4376;DHT22;2202;50.866;12.750;2023-06-19T05:00:03;20.20;55.30
4376;DHT22;2202;50.866;12.750;2023-06-19T05:02:31;20.30;53.50
4376;DHT22;2202;50.866;12.750;2023-06-19T05:04:58;20.40;54.30
4376;DHT22;2202;50.866;12.750;2023-06-19T05:07:29;20.40;54.30
4376;DHT22;2202;50.866;12.750;2023-06-19T05:09:57;20.60;52.80
4376;DHT22;2202;50.866;12.750;2023-06-19T05:12:24;20.70;52.70
4376;DHT22;2202;50.866;12.750;2023-06-19T05:14:51;20.80;53.20
4376;DHT22;2202;50.866;12.750;2023-06-19T05:17:17;20.90;52.80
4376;DHT22;2202;50.866;12.750;2023-06-19T05:19:44;20.90;51.90
4376;DHT22;2202;50.866;12.750;2023-06-19T05:22:11;20.90;50.90
4376;DHT22;2202;50.866;12.750;2023-06-19T05:24:40;21.00;51.10
4376;DHT22;2202;50.866;12.750;2023-06-19T05:27:07;21.00;50.50
4376;DHT22;2202;50.866;12.750;2023-06-19T05:29:34;21.10;51.20
4376;DHT22;2202;50.866;12.750;2023-06-19T05:32:01;21.10;51.20
4376;DHT22;2202;50.866;12.750;2023-06-19T05:34:28;21.20;50.00
4376;DHT22;2202;50.866;12.750;2023-06-19T05:36:55;21.20;49.60
4376;DHT22;2202;50.866;12.750;2023-06-19T05:39:22;21.20;50.30
4376;DHT22;2202;50.866;12.750;2023-06-19T05:41:50;21.30;50.70
4376;DHT22;2202;50.866;12.750;2023-06-19T05:44:17;21.30;51.90
4376;DHT22;2202;50.866;12.750;2023-06-19T05:46:44;21.40;50.50
4376;DHT22;2202;50.866;12.750;2023-06-19T05:49:11;21.40;49.80
4376;DHT22;2202;50.866;12.750;2023-06-19T05:51:38;21.50;49.80
4376;DHT22;2202;50.866;12.750;2023-06-19T05:54:05;21.40;48.90
4376;DHT22;2202;50.866;12.750;2023-06-19T05:56:32;21.40;50.00
4376;DHT22;2202;50.866;12.750;2023-06-19T05:59:01;21.50;49.50
4376;DHT22;2202;50.866;12.750;2023-06-19T06:01:28;21.50;49.30
4376;DHT22;2202;50.866;12.750;2023-06-19T06:03:55;21.60;50.20
4376;DHT22;2202;50.866;12.750;2023-06-19T06:06:22;21.60;48.60
4376;DHT22;2202;50.866;12.750;2023-06-19T06:08:51;21.70;47.90
4376;DHT22;2202;50.866;12.750;2023-06-19T06:11:18;21.80;47.50
4376;DHT22;2202;50.866;12.750;2023-06-19T06:13:44;21.90;48.20
4376;DHT22;2202;50.866;12.750;2023-06-19T06:16:13;22.00;47.70
4376;DHT22;2202;50.866;12.750;2023-06-19T06:18:41;22.00;46.10
4376;DHT22;2202;50.866;12.750;2023-06-19T06:21:07;22.10;47.00
4376;DHT22;2202;50.866;12.750;2023-06-19T06:23:34;22.10;47.70
4376;DHT22;2202;50.866;12.750;2023-06-19T06:26:01;22.20;47.70
4376;DHT22;2202;50.866;12.750;2023-06-19T06:28:28;22.30;47.00
4376;DHT22;2202;50.866;12.750;2023-06-19T06:30:55;22.40;46.60
4376;DHT22;2202;50.866;12.750;2023-06-19T06:33:23;22.50;47.00
4376;DHT22;2202;50.866;12.750;2023-06-19T06:35:50;22.60;47.00
4376;DHT22;2202;50.866;12.750;2023-06-19T06:38:17;22.60;46.30
4376;DHT22;2202;50.866;12.750;2023-06-19T06:40:44;22.70;47.30
4376;DHT22;2202;50.866;12.750;2023-06-19T06:43:11;22.70;48.40
4376;DHT22;2202;50.866;12.750;2023-06-19T06:45:38;22.70;46.40
4376;DHT22;2202;50.866;12.750;2023-06-19T06:48:07;22.90;50.50
4376;DHT22;2202;50.866;12.750;2023-06-19T06:50:35;22.70;50.00
4376;DHT22;2202;50.866;12.750;2023-06-19T06:53:02;22.60;53.40
4376;DHT22;2202;50.866;12.750;2023-06-19T06:55:29;22.50;55.70
4376;DHT22;2202;50.866;12.750;2023-06-19T06:57:56;22.40;56.20
4376;DHT22;2202;50.866;12.750;2023-06-19T07:00:23;22.30;53.40
4376;DHT22;2202;50.866;12.750;2023-06-19T07:02:49;22.20;53.00
4376;DHT22;2202;50.866;12.750;2023-06-19T07:05:17;22.30;52.50
4376;DHT22;2202;50.866;12.750;2023-06-19T07:07:45;21.90;55.50
4376;DHT22;2202;50.866;12.750;2023-06-19T07:10:12;21.80;57.80
4376;DHT22;2202;50.866;12.750;2023-06-19T07:12:46;21.80;58.30
4376;DHT22;2202;50.866;12.750;2023-06-19T07:15:13;21.90;58.90
4376;DHT22;2202;50.866;12.750;2023-06-19T07:17:39;22.00;61.80
4376;DHT22;2202;50.866;12.750;2023-06-19T07:20:07;22.10;59.90
4376;DHT22;2202;50.866;12.750;2023-06-19T07:22:34;22.10;60.10
4376;DHT22;2202;50.866;12.750;2023-06-19T07:25:03;22.20;59.00
4376;DHT22;2202;50.866;12.750;2023-06-19T07:27:30;22.10;58.90
4376;DHT22;2202;50.866;12.750;2023-06-19T07:29:57;22.10;58.20
4376;DHT22;2202;50.866;12.750;2023-06-19T07:32:24;22.10;58.20
4376;DHT22;2202;50.866;12.750;2023-06-19T07:34:51;22.00;58.00
4376;DHT22;2202;50.866;12.750;2023-06-19T07:37:18;21.90;60.20
4376;DHT22;2202;50.866;12.750;2023-06-19T07:39:46;21.90;61.80
4376;DHT22;2202;50.866;12.750;2023-06-19T07:42:14;21.90;62.60
4376;DHT22;2202;50.866;12.750;2023-06-19T07:44:41;21.90;63.60
4376;DHT22;2202;50.866;12.750;2023-06-19T07:47:08;22.00;63.80
4376;DHT22;2202;50.866;12.750;2023-06-19T07:49:36;22.00;65.20
4376;DHT22;2202;50.866;12.750;2023-06-19T07:52:03;22.00;62.20
4376;DHT22;2202;50.866;12.750;2023-06-19T07:54:30;21.90;63.60
4376;DHT22;2202;50.866;12.750;2023-06-19T07:56:57;21.90;64.40
4376;DHT22;2202;50.866;12.750;2023-06-19T07:59:25;22.00;65.20
4376;DHT22;2202;50.866;12.750;2023-06-19T08:01:52;22.10;64.80
4376;DHT22;2202;50.866;12.750;2023-06-19T08:04:19;22.10;65.80
4376;DHT22;2202;50.866;12.750;2023-06-19T08:06:46;22.20;65.20
4376;DHT22;2202;50.866;12.750;2023-06-19T08:09:13;22.20;66.00
4376;DHT22;2202;50.866;12.750;2023-06-19T08:11:40;22.30;68.60
4376;DHT22;2202;50.866;12.750;2023-06-19T08:14:07;22.30;69.20
4376;DHT22;2202;50.866;12.750;2023-06-19T08:16:35;22.40;67.60
4376;DHT22;2202;50.866;12.750;2023-06-19T08:19:02;22.50;68.00
4376;DHT22;2202;50.866;12.750;2023-06-19T08:21:29;22.60;63.40
4376;DHT22;2202;50.866;12.750;2023-06-19T08:23:56;22.70;61.80
4376;DHT22;2202;50.866;12.750;2023-06-19T08:26:23;22.70;63.80
4376;DHT22;2202;50.866;12.750;2023-06-19T08:28:50;22.90;57.10
4376;DHT22;2202;50.866;12.750;2023-06-19T08:31:16;23.00;57.60
4376;DHT22;2202;50.866;12.750;2023-06-19T08:33:46;23.20;57.80
4376;DHT22;2202;50.866;12.750;2023-06-19T08:36:14;23.50;54.80
4376;DHT22;2202;50.866;12.750;2023-06-19T08:38:41;23.80;49.60
4376;DHT22;2202;50.866;12.750;2023-06-19T08:41:08;24.00;52.50
4376;DHT22;2202;50.866;12.750;2023-06-19T08:43:35;24.10;45.90
4376;DHT22;2202;50.866;12.750;2023-06-19T08:46:09;24.20;46.30
4376;DHT22;2202;50.866;12.750;2023-06-19T08:48:36;24.10;48.40
4376;DHT22;2202;50.866;12.750;2023-06-19T08:51:05;24.30;51.40
4376;DHT22;2202;50.866;12.750;2023-06-19T08:53:34;24.40;50.70
4376;DHT22;2202;50.866;12.750;2023-06-19T08:56:02;24.50;50.90
4376;DHT22;2202;50.866;12.750;2023-06-19T08:58:29;24.50;50.70
4376;DHT22;2202;50.866;12.750;2023-06-19T09:00:58;24.60;48.80
4376;DHT22;2202;50.866;12.750;2023-06-19T09:03:25;24.70;47.00
4376;DHT22;2202;50.866;12.750;2023-06-19T09:05:52;24.70;45.20
4376;DHT22;2202;50.866;12.750;2023-06-19T09:08:21;24.80;46.10
4376;DHT22;2202;50.866;12.750;2023-06-19T09:10:56;25.00;44.70
4376;DHT22;2202;50.866;12.750;2023-06-19T09:13:23;25.10;48.80
4376;DHT22;2202;50.866;12.750;2023-06-19T09:15:58;25.30;45.00
4376;DHT22;2202;50.866;12.750;2023-06-19T09:18:26;25.50;48.60
4376;DHT22;2202;50.866;12.750;2023-06-19T09:20:53;25.80;44.80
4376;DHT22;2202;50.866;12.750;2023-06-19T09:23:22;26.00;45.70
4376;DHT22;2202;50.866;12.750;2023-06-19T09:25:50;26.10;45.90
4376;DHT22;2202;50.866;12.750;2023-06-19T09:28:19;26.30;46.30
4376;DHT22;2202;50.866;12.750;2023-06-19T09:30:55;26.50;39.30
4376;DHT22;2202;50.866;12.750;2023-06-19T09:33:24;26.60;43.60
4376;DHT22;2202;50.866;12.750;2023-06-19T09:35:52;26.70;42.00
4376;DHT22;2202;50.866;12.750;2023-06-19T09:38:23;26.80;41.80
4376;DHT22;2202;50.866;12.750;2023-06-19T09:40:52;27.00;44.80
4376;DHT22;2202;50.866;12.750;2023-06-19T09:43:23;27.20;41.10
4376;DHT22;2202;50.866;12.750;2023-06-19T09:45:50;27.40;38.30
4376;DHT22;2202;50.866;12.750;2023-06-19T09:48:26;27.70;37.60
4376;DHT22;2202;50.866;12.750;2023-06-19T09:50:58;28.20;37.40
4376;DHT22;2202;50.866;12.750;2023-06-19T09:53:27;28.50;37.70
4376;DHT22;2202;50.866;12.750;2023-06-19T09:55:54;28.80;34.60
4376;DHT22;2202;50.866;12.750;2023-06-19T09:58:22;28.50;34.90
4376;DHT22;2202;50.866;12.750;2023-06-19T10:00:50;28.40;36.10
4376;DHT22;2202;50.866;12.750;2023-06-19T10:03:17;28.60;36.90
4376;DHT22;2202;50.866;12.750;2023-06-19T10:05:44;28.70;33.70
4376;DHT22;2202;50.866;12.750;2023-06-19T10:08:11;28.60;34.60
4376;DHT22;2202;50.866;12.750;2023-06-19T10:10:47;28.90;32.60
4376;DHT22;2202;50.866;12.750;2023-06-19T10:13:16;28.60;35.30
4376;DHT22;2202;50.866;12.750;2023-06-19T10:15:44;28.50;34.40
4376;DHT22;2202;50.866;12.750;2023-06-19T10:18:14;28.40;36.30
4376;DHT22;2202;50.866;12.750;2023-06-19T10:20:43;28.10;38.30
4376;DHT22;2202;50.866;12.750;2023-06-19T10:23:12;28.50;36.30
4376;DHT22;2202;50.866;12.750;2023-06-19T10:25:40;28.60;35.10
4376;DHT22;2202;50.866;12.750;2023-06-19T10:28:18;28.30;37.20
4376;DHT22;2202;50.866;12.750;2023-06-19T10:30:52;27.90;35.80
4376;DHT22;2202;50.866;12.750;2023-06-19T10:33:19;27.50;38.60
4376;DHT22;2202;50.866;12.750;2023-06-19T10:35:46;27.50;41.30
4376;DHT22;2202;50.866;12.750;2023-06-19T10:38:15;27.90;40.90
4376;DHT22;2202;50.866;12.750;2023-06-19T10:40:42;28.40;39.90
4376;DHT22;2202;50.866;12.750;2023-06-19T10:43:10;28.70;35.80
4376;DHT22;2202;50.866;12.750;2023-06-19T10:45:38;28.80;34.00
4376;DHT22;2202;50.866;12.750;2023-06-19T10:48:05;29.20;34.90
4376;DHT22;2202;50.866;12.750;2023-06-19T10:50:34;28.90;34.00
4376;DHT22;2202;50.866;12.750;2023-06-19T10:53:04;28.60;36.70
4376;DHT22;2202;50.866;12.750;2023-06-19T10:55:30;28.30;37.40
4376;DHT22;2202;50.866;12.750;2023-06-19T10:57:57;28.40;34.70
4376;DHT22;2202;50.866;12.750;2023-06-19T11:00:25;28.20;35.80
4376;DHT22;2202;50.866;12.750;2023-06-19T11:02:55;27.90;36.10
4376;DHT22;2202;50.866;12.750;2023-06-19T11:05:23;28.10;35.60
4376;DHT22;2202;50.866;12.750;2023-06-19T11:07:54;28.40;35.40
4376;DHT22;2202;50.866;12.750;2023-06-19T11:10:23;27.90;35.30
4376;DHT22;2202;50.866;12.750;2023-06-19T11:12:53;27.60;36.90
4376;DHT22;2202;50.866;12.750;2023-06-19T11:15:20;27.50;38.10
4376;DHT22;2202;50.866;12.750;2023-06-19T11:17:55;27.90;39.50
4376;DHT22;2202;50.866;12.750;2023-06-19T11:20:22;28.10;37.60
4376;DHT22;2202;50.866;12.750;2023-06-19T11:22:55;27.80;36.30
4376;DHT22;2202;50.866;12.750;2023-06-19T11:25:22;28.10;38.60
4376;DHT22;2202;50.866;12.750;2023-06-19T11:27:49;28.50;37.00
4376;DHT22;2202;50.866;12.750;2023-06-19T11:30:18;28.50;36.30
4376;DHT22;2202;50.866;12.750;2023-06-19T11:32:46;28.20;37.60
4376;DHT22;2202;50.866;12.750;2023-06-19T11:35:16;28.00;36.10
4376;DHT22;2202;50.866;12.750;2023-06-19T11:37:43;27.80;35.60
4376;DHT22;2202;50.866;12.750;2023-06-19T11:40:10;27.30;39.00
4376;DHT22;2202;50.866;12.750;2023-06-19T11:42:48;27.10;43.10
4376;DHT22;2202;50.866;12.750;2023-06-19T11:45:15;27.00;39.70
4376;DHT22;2202;50.866;12.750;2023-06-19T11:47:43;27.00;41.10
4376;DHT22;2202;50.866;12.750;2023-06-19T11:50:11;27.10;40.80
4376;DHT22;2202;50.866;12.750;2023-06-19T11:52:43;27.20;40.60
4376;DHT22;2202;50.866;12.750;2023-06-19T11:55:10;27.30;40.10
4376;DHT22;2202;50.866;12.750;2023-06-19T11:57:38;27.30;40.90
4376;DHT22;2202;50.866;12.750;2023-06-19T12:00:13;27.30;39.50
4376;DHT22;2202;50.866;12.750;2023-06-19T12:02:40;27.20;39.20
4376;DHT22;2202;50.866;12.750;2023-06-19T12:05:08;27.20;44.00
4376;DHT22;2202;50.866;12.750;2023-06-19T12:07:36;27.50;42.00
4376;DHT22;2202;50.866;12.750;2023-06-19T12:10:05;27.50;39.50
4376;DHT22;2202;50.866;12.750;2023-06-19T12:12:35;27.40;42.20
4376;DHT22;2202;50.866;12.750;2023-06-19T12:15:03;27.60;39.20
4376;DHT22;2202;50.866;12.750;2023-06-19T12:17:30;27.70;39.00
4376;DHT22;2202;50.866;12.750;2023-06-19T12:19:58;27.70;42.20
4376;DHT22;2202;50.866;12.750;2023-06-19T12:22:26;28.00;40.60
4376;DHT22;2202;50.866;12.750;2023-06-19T12:24:53;28.20;40.90
4376;DHT22;2202;50.866;12.750;2023-06-19T12:27:21;28.10;38.10
4376;DHT22;2202;50.866;12.750;2023-06-19T12:29:48;27.70;37.70
4376;DHT22;2202;50.866;12.750;2023-06-19T12:32:14;27.50;39.20
4376;DHT22;2202;50.866;12.750;2023-06-19T12:34:41;27.70;40.60
4376;DHT22;2202;50.866;12.750;2023-06-19T12:37:12;27.80;40.60
4376;DHT22;2202;50.866;12.750;2023-06-19T12:39:40;28.00;40.60
4376;DHT22;2202;50.866;12.750;2023-06-19T12:42:07;28.00;39.20
4376;DHT22;2202;50.866;12.750;2023-06-19T12:44:35;27.80;37.00
4376;DHT22;2202;50.866;12.750;2023-06-19T12:47:02;27.90;37.40
4376;DHT22;2202;50.866;12.750;2023-06-19T12:49:30;27.70;39.90
4376;DHT22;2202;50.866;12.750;2023-06-19T12:51:57;28.10;37.70
4376;DHT22;2202;50.866;12.750;2023-06-19T12:54:25;28.40;38.80
4376;DHT22;2202;50.866;12.750;2023-06-19T12:56:52;28.50;37.00
4376;DHT22;2202;50.866;12.750;2023-06-19T12:59:19;28.50;36.30
4376;DHT22;2202;50.866;12.750;2023-06-19T13:01:47;28.70;35.10
4376;DHT22;2202;50.866;12.750;2023-06-19T13:04:14;28.70;39.30
4376;DHT22;2202;50.866;12.750;2023-06-19T13:06:41;28.90;34.40
4376;DHT22;2202;50.866;12.750;2023-06-19T13:09:08;28.70;36.00
4376;DHT22;2202;50.866;12.750;2023-06-19T13:11:35;28.50;39.20
4376;DHT22;2202;50.866;12.750;2023-06-19T13:14:02;28.40;36.90
4376;DHT22;2202;50.866;12.750;2023-06-19T13:16:30;28.20;39.20
4376;DHT22;2202;50.866;12.750;2023-06-19T13:18:59;28.20;38.60
4376;DHT22;2202;50.866;12.750;2023-06-19T13:21:26;28.30;37.00
4376;DHT22;2202;50.866;12.750;2023-06-19T13:23:53;28.50;37.00
4376;DHT22;2202;50.866;12.750;2023-06-19T13:26:20;29.00;36.10
4376;DHT22;2202;50.866;12.750;2023-06-19T13:28:46;28.70;36.00
4376;DHT22;2202;50.866;12.750;2023-06-19T13:31:13;28.40;35.60
4376;DHT22;2202;50.866;12.750;2023-06-19T13:33:40;28.30;36.90
4376;DHT22;2202;50.866;12.750;2023-06-19T13:36:08;28.30;37.70
4376;DHT22;2202;50.866;12.750;2023-06-19T13:38:35;28.00;35.10
4376;DHT22;2202;50.866;12.750;2023-06-19T13:41:02;28.00;39.30
4376;DHT22;2202;50.866;12.750;2023-06-19T13:43:31;28.20;36.50
4376;DHT22;2202;50.866;12.750;2023-06-19T13:45:58;28.60;34.40
4376;DHT22;2202;50.866;12.750;2023-06-19T13:48:25;28.80;34.40
4376;DHT22;2202;50.866;12.750;2023-06-19T13:50:52;28.90;34.60
4376;DHT22;2202;50.866;12.750;2023-06-19T13:53:20;29.30;37.00
4376;DHT22;2202;50.866;12.750;2023-06-19T13:55:47;29.20;36.30
4376;DHT22;2202;50.866;12.750;2023-06-19T13:58:14;29.40;33.00
4376;DHT22;2202;50.866;12.750;2023-06-19T14:00:41;29.10;33.10
4376;DHT22;2202;50.866;12.750;2023-06-19T14:03:08;29.20;35.40
4376;DHT22;2202;50.866;12.750;2023-06-19T14:05:34;28.90;36.10
4376;DHT22;2202;50.866;12.750;2023-06-19T14:08:03;28.80;35.40
4376;DHT22;2202;50.866;12.750;2023-06-19T14:10:31;28.80;35.80
4376;DHT22;2202;50.866;12.750;2023-06-19T14:12:58;28.70;34.60
4376;DHT22;2202;50.866;12.750;2023-06-19T14:15:25;29.10;35.10
4376;DHT22;2202;50.866;12.750;2023-06-19T14:17:51;29.10;34.60
4376;DHT22;2202;50.866;12.750;2023-06-19T14:20:19;28.80;33.30
4376;DHT22;2202;50.866;12.750;2023-06-19T14:22:45;28.50;35.40
4376;DHT22;2202;50.866;12.750;2023-06-19T14:25:12;28.40;35.60
4376;DHT22;2202;50.866;12.750;2023-06-19T14:27:40;28.60;36.00
4376;DHT22;2202;50.866;12.750;2023-06-19T14:30:08;28.90;35.60
4376;DHT22;2202;50.866;12.750;2023-06-19T14:32:35;29.20;34.70
4376;DHT22;2202;50.866;12.750;2023-06-19T14:35:03;29.00;34.70
4376;DHT22;2202;50.866;12.750;2023-06-19T14:37:30;29.40;35.60
4376;DHT22;2202;50.866;12.750;2023-06-19T14:39:57;29.40;34.40
4376;DHT22;2202;50.866;12.750;2023-06-19T14:42:24;29.30;33.80
4376;DHT22;2202;50.866;12.750;2023-06-19T14:44:52;29.50;34.60
4376;DHT22;2202;50.866;12.750;2023-06-19T14:47:19;29.50;32.60
4376;DHT22;2202;50.866;12.750;2023-06-19T14:49:46;29.70;32.20
4376;DHT22;2202;50.866;12.750;2023-06-19T14:52:14;29.50;31.90
4376;DHT22;2202;50.866;12.750;2023-06-19T14:54:41;29.60;32.20
4376;DHT22;2202;50.866;12.750;2023-06-19T14:57:08;29.40;31.50
4376;DHT22;2202;50.866;12.750;2023-06-19T14:59:35;29.50;32.80
4376;DHT22;2202;50.866;12.750;2023-06-19T15:02:04;29.70;33.10
4376;DHT22;2202;50.866;12.750;2023-06-19T15:04:32;29.70;29.90
4376;DHT22;2202;50.866;12.750;2023-06-19T15:06:59;29.80;31.70
4376;DHT22;2202;50.866;12.750;2023-06-19T15:09:26;29.30;31.00
4376;DHT22;2202;50.866;12.750;2023-06-19T15:11:53;29.20;33.50
4376;DHT22;2202;50.866;12.750;2023-06-19T15:14:20;29.20;32.80
4376;DHT22;2202;50.866;12.750;2023-06-19T15:16:47;29.20;34.40
4376;DHT22;2202;50.866;12.750;2023-06-19T15:19:15;29.30;34.90
4376;DHT22;2202;50.866;12.750;2023-06-19T15:21:42;29.30;35.30
4376;DHT22;2202;50.866;12.750;2023-06-19T15:24:09;29.30;34.60
4376;DHT22;2202;50.866;12.750;2023-06-19T15:26:35;29.00;35.30
4376;DHT22;2202;50.866;12.750;2023-06-19T15:29:02;28.80;36.00
4376;DHT22;2202;50.866;12.750;2023-06-19T15:31:29;28.80;36.50
4376;DHT22;2202;50.866;12.750;2023-06-19T15:33:56;28.80;35.80
4376;DHT22;2202;50.866;12.750;2023-06-19T15:36:24;29.00;34.70
4376;DHT22;2202;50.866;12.750;2023-06-19T15:38:51;28.70;35.80
4376;DHT22;2202;50.866;12.750;2023-06-19T15:41:18;28.70;37.20
4376;DHT22;2202;50.866;12.750;2023-06-19T15:43:45;28.70;37.00
4376;DHT22;2202;50.866;12.750;2023-06-19T15:46:14;28.90;36.70
4376;DHT22;2202;50.866;12.750;2023-06-19T15:48:41;28.90;36.70